createdAt,value
2018-03-18T00:01:52.257Z,42.70
2018-03-18T00:04:21.285Z,42.60
2018-03-18T00:06:49.552Z,42.30
2018-03-18T00:09:17.858Z,42.50
2018-03-18T00:11:47.016Z,42.60
2018-03-18T00:14:15.199Z,42.40
2018-03-18T00:16:44.324Z,42.10
2018-03-18T00:19:12.607Z,42.40
2018-03-18T00:21:40.886Z,42.30
2018-03-18T00:24:09.108Z,41.40
2018-03-18T00:26:37.443Z,42.50
2018-03-18T00:29:05.673Z,42.30
2018-03-18T00:31:34.101Z,42.10
2018-03-18T00:34:02.342Z,42.10
2018-03-18T00:36:30.661Z,42.00
2018-03-18T00:38:58.921Z,42.40
2018-03-18T00:41:27.176Z,42.10
2018-03-18T00:43:56.201Z,42.00
2018-03-18T00:46:24.483Z,42.00
2018-03-18T00:48:52.734Z,42.70
2018-03-18T00:51:33.482Z,41.90
2018-03-18T00:54:02.680Z,42.00
2018-03-18T00:56:30.921Z,41.80
2018-03-18T00:58:59.235Z,40.60
2018-03-18T01:01:28.209Z,42.00
2018-03-18T01:03:56.502Z,42.10
2018-03-18T01:06:24.803Z,41.90
2018-03-18T01:08:53.808Z,41.80
2018-03-18T01:11:22.870Z,41.80
2018-03-18T01:13:51.353Z,40.60
2018-03-18T01:16:19.658Z,41.70
2018-03-18T01:18:47.940Z,41.80
2018-03-18T01:21:16.181Z,41.80
2018-03-18T01:23:45.192Z,41.50
2018-03-18T01:26:13.553Z,41.60
2018-03-18T01:28:41.794Z,41.40
2018-03-18T01:31:10.096Z,41.50
2018-03-18T01:33:38.343Z,41.20
2018-03-18T01:36:06.565Z,41.40
2018-03-18T01:38:34.896Z,41.20
2018-03-18T01:41:03.167Z,41.10
2018-03-18T01:43:32.113Z,41.30
2018-03-18T01:46:00.389Z,41.10
2018-03-18T01:48:28.621Z,41.10
2018-03-18T01:50:57.129Z,41.80
2018-03-18T01:53:25.390Z,40.90
2018-03-18T01:55:53.870Z,40.70
2018-03-18T01:58:22.115Z,40.90
2018-03-18T02:00:50.988Z,40.90
2018-03-18T02:03:19.282Z,40.80
2018-03-18T02:05:47.513Z,40.70
2018-03-18T02:08:15.749Z,40.60
2018-03-18T02:10:44.046Z,40.70
2018-03-18T02:13:12.498Z,40.60
2018-03-18T02:15:40.728Z,40.60
2018-03-18T02:18:09.005Z,40.60
2018-03-18T02:20:38.273Z,40.80
2018-03-18T02:23:06.491Z,40.70
2018-03-18T02:25:34.951Z,40.50
2018-03-18T02:28:03.153Z,40.50
2018-03-18T02:30:31.506Z,40.30
2018-03-18T02:32:59.751Z,39.70
2018-03-18T02:35:28.909Z,40.70
2018-03-18T02:37:57.362Z,40.60
2018-03-18T02:40:25.798Z,40.30
2018-03-18T02:42:55.044Z,40.50
2018-03-18T02:45:24.038Z,40.50
2018-03-18T02:47:52.293Z,40.50
2018-03-18T02:50:20.610Z,40.30
2018-03-18T02:52:51.057Z,40.20
2018-03-18T02:55:19.300Z,40.00
2018-03-18T02:57:48.327Z,40.10
2018-03-18T03:00:16.603Z,40.30
2018-03-18T03:02:45.807Z,40.20
2018-03-18T03:05:14.056Z,40.00
2018-03-18T03:07:42.318Z,39.70
2018-03-18T03:10:11.340Z,40.20
2018-03-18T03:12:39.599Z,40.20
2018-03-18T03:15:08.261Z,40.20
2018-03-18T03:17:36.490Z,40.00
2018-03-18T03:20:04.711Z,40.20
2018-03-18T03:22:33.789Z,39.80
2018-03-18T03:25:02.036Z,39.10
2018-03-18T03:27:30.287Z,40.10
2018-03-18T03:29:58.555Z,40.10
2018-03-18T03:32:26.829Z,40.00
2018-03-18T03:34:55.074Z,40.40
2018-03-18T03:37:23.353Z,38.80
2018-03-18T03:39:51.593Z,39.50
2018-03-18T03:42:19.829Z,39.70
2018-03-18T03:44:48.952Z,39.70
2018-03-18T03:47:17.196Z,39.70
2018-03-18T03:49:46.202Z,39.30
2018-03-18T03:52:14.454Z,39.40
2018-03-18T03:54:43.557Z,39.80
2018-03-18T03:57:11.802Z,39.80
2018-03-18T03:59:40.044Z,39.50
2018-03-18T04:02:08.281Z,39.70
2018-03-18T04:04:37.300Z,39.40
2018-03-18T04:07:05.548Z,39.40
2018-03-18T04:09:33.843Z,39.30
2018-03-18T04:12:02.117Z,39.60
2018-03-18T04:14:30.494Z,39.00
2018-03-18T04:16:59.515Z,39.00
2018-03-18T04:19:27.763Z,39.10
2018-03-18T04:21:56.185Z,39.00
2018-03-18T04:24:24.422Z,39.10
2018-03-18T04:26:53.599Z,38.90
2018-03-18T04:29:21.875Z,38.90
2018-03-18T04:31:50.114Z,39.10
2018-03-18T04:34:18.357Z,38.90
2018-03-18T04:36:47.299Z,38.90
2018-03-18T04:39:17.115Z,37.80
2018-03-18T04:41:45.356Z,38.80
2018-03-18T04:44:13.793Z,38.90
2018-03-18T04:46:42.133Z,38.70
2018-03-18T04:49:10.398Z,38.80
2018-03-18T04:51:38.625Z,38.80
2018-03-18T04:54:08.019Z,38.90
2018-03-18T04:56:37.081Z,38.90
2018-03-18T04:59:05.391Z,38.90
2018-03-18T05:01:33.616Z,37.80
2018-03-18T05:04:01.864Z,38.70
2018-03-18T05:06:30.249Z,38.70
2018-03-18T05:08:58.701Z,38.80
2018-03-18T05:11:26.919Z,39.10
2018-03-18T05:13:55.148Z,39.00
2018-03-18T05:16:24.352Z,38.80
2018-03-18T05:18:52.592Z,39.50
2018-03-18T05:21:20.825Z,39.40
2018-03-18T05:23:49.058Z,39.40
2018-03-18T05:26:18.111Z,39.10
2018-03-18T05:28:46.334Z,39.10
2018-03-18T05:31:16.097Z,38.90
2018-03-18T05:33:44.337Z,38.80
2018-03-18T05:36:12.590Z,38.80
2018-03-18T05:38:42.351Z,39.10
2018-03-18T05:41:10.599Z,39.10
2018-03-18T05:43:38.831Z,38.90
2018-03-18T05:46:07.936Z,39.00
2018-03-18T05:48:36.263Z,39.20
2018-03-18T05:51:04.524Z,39.00
2018-03-18T05:53:32.756Z,38.80
2018-03-18T05:56:01.040Z,38.90
2018-03-18T05:58:29.281Z,38.90
2018-03-18T06:00:58.400Z,38.90
2018-03-18T06:03:27.443Z,38.90
2018-03-18T06:05:56.494Z,39.00
2018-03-18T06:08:24.762Z,38.90
2018-03-18T06:10:53.038Z,38.10
2018-03-18T06:13:21.293Z,39.00
2018-03-18T06:15:50.116Z,39.20
2018-03-18T06:18:19.884Z,38.00
2018-03-18T06:20:48.154Z,38.80
2018-03-18T06:23:16.403Z,39.10
2018-03-18T06:25:44.663Z,38.80
2018-03-18T06:28:12.975Z,38.60
2018-03-18T06:30:41.201Z,38.40
2018-03-18T06:33:09.460Z,38.60
2018-03-18T06:35:38.614Z,38.60
2018-03-18T06:38:08.373Z,38.60
2018-03-18T06:40:36.805Z,38.50
2018-03-18T06:43:05.798Z,39.00
2018-03-18T06:45:35.470Z,38.70
2018-03-18T06:48:03.748Z,38.80
2018-03-18T06:50:32.167Z,39.00
2018-03-18T06:53:00.420Z,39.10
2018-03-18T06:55:29.484Z,38.90
2018-03-18T06:57:57.766Z,38.80
2018-03-18T07:00:26.054Z,39.20
2018-03-18T07:02:54.299Z,38.70
2018-03-18T07:05:22.531Z,38.80
2018-03-18T07:07:50.770Z,38.60
2018-03-18T07:10:19.036Z,38.30
2018-03-18T07:12:47.282Z,38.40
2018-03-18T07:15:15.580Z,38.20
2018-03-18T07:17:43.849Z,38.30
2018-03-18T07:20:12.942Z,38.30
2018-03-18T07:22:41.222Z,38.20
2018-03-18T07:25:09.450Z,38.00
2018-03-18T07:27:38.005Z,37.70
2018-03-18T07:30:06.432Z,37.80
2018-03-18T07:32:34.725Z,37.80
2018-03-18T07:35:03.004Z,37.90
2018-03-18T07:37:31.489Z,37.70
2018-03-18T07:39:59.754Z,37.70
2018-03-18T07:42:28.582Z,37.90
2018-03-18T07:44:56.858Z,38.00
2018-03-18T07:47:25.116Z,37.90
2018-03-18T07:49:53.410Z,37.00
2018-03-18T07:52:21.692Z,37.80
2018-03-18T07:54:49.992Z,36.50
2018-03-18T07:57:18.917Z,37.70
2018-03-18T07:59:47.142Z,37.50
2018-03-18T08:02:16.157Z,37.50
2018-03-18T08:04:44.408Z,37.20
2018-03-18T08:07:12.686Z,37.40
2018-03-18T08:09:40.929Z,37.30
2018-03-18T08:12:09.226Z,37.30
2018-03-18T08:14:37.465Z,37.20
2018-03-18T08:17:05.757Z,37.10
2018-03-18T08:19:34.129Z,37.10
2018-03-18T08:22:02.364Z,37.40
2018-03-18T08:24:30.762Z,36.20
2018-03-18T08:26:58.978Z,37.30
2018-03-18T08:29:27.221Z,37.40
2018-03-18T08:31:56.304Z,37.00
2018-03-18T08:34:24.689Z,36.90
2018-03-18T08:36:52.941Z,37.60
2018-03-18T08:39:21.432Z,37.00
2018-03-18T08:41:49.700Z,36.70
2018-03-18T08:44:17.912Z,36.90
2018-03-18T08:46:46.457Z,35.90
2018-03-18T08:49:14.738Z,37.00
2018-03-18T08:51:43.279Z,36.80
2018-03-18T08:54:12.333Z,36.90
2018-03-18T08:56:40.562Z,36.60
2018-03-18T08:59:08.810Z,36.90
2018-03-18T09:01:37.087Z,37.10
2018-03-18T09:04:06.219Z,37.00
2018-03-18T09:06:35.755Z,36.90
2018-03-18T09:09:04.167Z,36.60
2018-03-18T09:11:32.425Z,36.60
2018-03-18T09:14:01.977Z,36.20
2018-03-18T09:16:30.309Z,36.40
2018-03-18T09:19:00.247Z,36.40
2018-03-18T09:21:28.704Z,36.60
2018-03-18T09:23:56.972Z,36.70
2018-03-18T09:26:25.277Z,36.50
2018-03-18T09:28:54.443Z,36.50
2018-03-18T09:31:23.506Z,36.40
2018-03-18T09:33:51.780Z,36.80
2018-03-18T09:36:20.088Z,36.50
2018-03-18T09:38:48.348Z,36.30
2018-03-18T09:41:16.603Z,36.20
2018-03-18T09:43:44.898Z,36.40
2018-03-18T09:46:13.161Z,36.40
2018-03-18T09:48:41.454Z,36.40
2018-03-18T09:51:10.445Z,36.60
2018-03-18T09:53:38.784Z,36.40
2018-03-18T09:56:07.025Z,36.20
2018-03-18T09:58:35.300Z,36.30
2018-03-18T10:01:05.152Z,36.70
2018-03-18T10:03:33.432Z,36.40
2018-03-18T10:06:01.717Z,36.50
2018-03-18T10:08:31.493Z,36.50
2018-03-18T10:11:00.570Z,36.40
2018-03-18T10:13:28.868Z,36.40
2018-03-18T10:15:57.855Z,36.40
2018-03-18T10:18:26.090Z,36.30
2018-03-18T10:20:54.352Z,35.90
2018-03-18T10:23:22.593Z,36.00
2018-03-18T10:25:51.797Z,35.90
2018-03-18T10:28:20.057Z,35.90
2018-03-18T10:30:48.343Z,35.70
2018-03-18T10:33:16.590Z,35.90
2018-03-18T10:35:44.842Z,35.90
2018-03-18T10:38:13.093Z,35.60
2018-03-18T10:40:41.357Z,35.50
2018-03-18T10:43:10.381Z,35.60
2018-03-18T10:45:38.703Z,35.70
2018-03-18T10:48:07.698Z,35.30
2018-03-18T10:50:36.657Z,35.60
2018-03-18T10:53:04.973Z,35.30
2018-03-18T10:55:33.245Z,35.10
2018-03-18T10:58:01.513Z,35.10
2018-03-18T11:00:35.521Z,35.00
2018-03-18T11:03:03.721Z,35.30
2018-03-18T11:05:32.127Z,35.20
2018-03-18T11:08:00.382Z,35.00
2018-03-18T11:10:29.668Z,35.30
2018-03-18T11:12:57.890Z,35.20
2018-03-18T11:15:26.158Z,35.30
2018-03-18T11:17:54.480Z,35.50
2018-03-18T11:20:22.706Z,35.20
2018-03-18T11:22:53.070Z,35.30
2018-03-18T11:25:21.301Z,35.70
2018-03-18T11:27:49.559Z,35.70
2018-03-18T11:30:18.553Z,35.20
2018-03-18T11:32:47.211Z,35.10
2018-03-18T11:35:15.435Z,34.90
2018-03-18T11:37:44.566Z,34.70
2018-03-18T11:40:12.814Z,34.90
2018-03-18T11:42:41.070Z,34.70
2018-03-18T11:45:09.338Z,34.90
2018-03-18T11:47:37.613Z,34.30
2018-03-18T11:50:06.604Z,34.80
2018-03-18T11:52:35.445Z,34.80
2018-03-18T11:55:04.485Z,34.60
2018-03-18T11:57:33.508Z,34.50
2018-03-18T12:00:02.727Z,34.30
2018-03-18T12:02:30.990Z,34.60
2018-03-18T12:04:59.230Z,34.20
2018-03-18T12:07:29.230Z,33.60
2018-03-18T12:09:57.469Z,33.70
2018-03-18T12:12:25.705Z,33.50
2018-03-18T12:14:53.963Z,33.60
2018-03-18T12:17:22.405Z,33.80
2018-03-18T12:19:50.667Z,33.80
2018-03-18T12:22:18.913Z,33.80
2018-03-18T12:24:47.173Z,33.60
2018-03-18T12:27:16.247Z,33.40
2018-03-18T12:29:45.387Z,33.50
2018-03-18T12:32:13.638Z,33.80
2018-03-18T12:34:42.958Z,33.50
2018-03-18T12:37:12.812Z,33.90
2018-03-18T12:39:52.837Z,33.80
2018-03-18T12:42:33.059Z,33.30
2018-03-18T12:45:01.757Z,33.10
2018-03-18T12:47:30.047Z,33.50
2018-03-18T12:49:58.264Z,33.50
2018-03-18T12:52:26.570Z,33.30
2018-03-18T12:54:55.611Z,33.20
2018-03-18T13:00:02.594Z,32.60
2018-03-18T13:02:32.236Z,33.30
2018-03-18T13:05:00.466Z,33.30
2018-03-18T13:07:28.715Z,33.20
2018-03-18T13:09:58.637Z,33.20
2018-03-18T13:12:26.851Z,33.20
2018-03-18T13:14:55.126Z,33.20
2018-03-18T13:17:23.374Z,33.20
2018-03-18T13:19:52.504Z,33.00
2018-03-18T13:22:21.633Z,33.00
2018-03-18T13:24:50.932Z,32.40
2018-03-18T13:27:19.965Z,31.90
2018-03-18T13:29:48.190Z,32.00
2018-03-18T13:32:18.191Z,32.50
2018-03-18T13:34:46.762Z,32.50
2018-03-18T13:37:15.089Z,32.50
2018-03-18T13:39:43.464Z,32.60
2018-03-18T13:42:12.469Z,32.60
2018-03-18T13:44:40.727Z,32.50
2018-03-18T13:47:09.047Z,32.50
2018-03-18T13:49:38.946Z,32.10
2018-03-18T13:52:07.502Z,32.10
2018-03-18T13:54:35.882Z,31.70
2018-03-18T13:57:05.054Z,31.80
2018-03-18T13:59:33.423Z,32.10
2018-03-18T14:02:01.723Z,31.80
2018-03-18T14:04:29.951Z,31.60
2018-03-18T14:06:59.069Z,31.70
2018-03-18T14:09:27.356Z,32.10
2018-03-18T14:11:55.609Z,32.10
2018-03-18T14:14:23.940Z,32.00
2018-03-18T14:16:52.327Z,31.90
2018-03-18T14:19:20.707Z,31.90
2018-03-18T14:21:48.951Z,31.40
2018-03-18T14:24:17.240Z,31.90
2018-03-18T14:26:45.626Z,31.70
2018-03-18T14:29:13.841Z,31.60
2018-03-18T14:31:42.918Z,31.50
2018-03-18T14:34:16.446Z,31.60
2018-03-18T14:36:48.753Z,31.70
2018-03-18T14:39:17.911Z,31.60
2018-03-18T14:41:46.171Z,31.40
2018-03-18T14:44:15.460Z,31.50
2018-03-18T14:46:44.614Z,31.60
2018-03-18T14:49:12.850Z,31.60
2018-03-18T14:51:41.110Z,31.60
2018-03-18T14:54:09.375Z,31.70
2018-03-18T14:56:38.442Z,31.40
2018-03-18T14:59:07.641Z,31.60
2018-03-18T15:01:35.923Z,31.60
2018-03-18T15:04:04.916Z,31.40
2018-03-18T15:06:34.077Z,31.10
2018-03-18T15:09:03.245Z,31.10
2018-03-18T15:11:32.350Z,31.00
2018-03-18T15:14:01.536Z,31.60
2018-03-18T15:16:29.750Z,31.40
2018-03-18T15:18:58.003Z,31.50
2018-03-18T15:21:27.014Z,31.80
2018-03-18T15:23:55.268Z,31.90
2018-03-18T15:26:23.534Z,31.30
2018-03-18T15:28:52.581Z,31.70
2018-03-18T15:31:22.271Z,31.80
2018-03-18T15:33:51.342Z,31.50
2018-03-18T15:36:19.747Z,31.40
2018-03-18T15:38:48.147Z,31.30
2018-03-18T15:41:16.379Z,31.40
2018-03-18T15:43:45.383Z,31.40
2018-03-18T15:46:13.645Z,31.20
2018-03-18T15:48:41.878Z,31.10
2018-03-18T15:51:10.163Z,31.20
2018-03-18T15:53:39.347Z,31.30
2018-03-18T15:56:08.750Z,31.70
2018-03-18T15:58:37.081Z,31.20
2018-03-18T16:01:05.344Z,31.30
2018-03-18T16:03:34.266Z,31.30
2018-03-18T16:06:02.504Z,31.20
2018-03-18T16:08:30.742Z,31.30
2018-03-18T16:10:59.022Z,31.10
2018-03-18T16:13:27.269Z,31.30
2018-03-18T16:15:55.674Z,31.20
2018-03-18T16:18:23.902Z,31.30
2018-03-18T16:20:52.137Z,31.30
2018-03-18T16:23:25.552Z,31.30
2018-03-18T16:25:55.317Z,31.70
2018-03-18T16:28:24.573Z,31.00
2018-03-18T16:31:07.421Z,31.60
2018-03-18T16:33:36.148Z,30.90
2018-03-18T16:36:04.592Z,30.70
2018-03-18T16:38:33.681Z,30.80
2018-03-18T16:41:04.181Z,30.50
2018-03-18T16:43:32.458Z,31.10
2018-03-18T16:46:00.730Z,30.90
2018-03-18T16:48:29.422Z,30.80
2018-03-18T16:50:57.661Z,30.60
2018-03-18T16:53:25.983Z,30.40
2018-03-18T16:55:54.208Z,30.40
2018-03-18T16:58:23.688Z,30.50
2018-03-18T17:00:51.967Z,30.30
2018-03-18T17:03:20.336Z,30.10
2018-03-18T17:05:49.428Z,29.80
2018-03-18T17:08:18.191Z,30.00
2018-03-18T17:10:46.620Z,29.90
2018-03-18T17:13:14.887Z,29.70
2018-03-18T17:15:43.180Z,29.90
2018-03-18T17:18:12.296Z,29.90
2018-03-18T17:20:40.611Z,29.70
2018-03-18T17:23:08.864Z,29.80
2018-03-18T17:25:37.231Z,29.60
2018-03-18T17:28:05.499Z,29.60
2018-03-18T17:30:34.513Z,29.80
2018-03-18T17:33:02.805Z,29.80
2018-03-18T17:35:31.105Z,29.40
2018-03-18T17:37:59.361Z,29.50
2018-03-18T17:40:27.606Z,29.30
2018-03-18T17:42:57.976Z,29.50
2018-03-18T17:45:39.949Z,29.60
2018-03-18T17:48:20.134Z,29.80
2018-03-18T17:51:00.119Z,29.60
2018-03-18T17:53:40.318Z,29.80
2018-03-18T17:56:20.366Z,29.70
2018-03-18T17:58:48.648Z,29.50
2018-03-18T18:01:16.880Z,29.60
2018-03-18T18:03:45.951Z,29.80
2018-03-18T18:06:19.201Z,29.80
2018-03-18T18:08:50.582Z,29.70
2018-03-18T18:11:20.717Z,29.70
2018-03-18T18:13:48.954Z,29.80
2018-03-18T18:16:17.233Z,29.90
2018-03-18T18:18:45.467Z,29.90
2018-03-18T18:21:13.707Z,29.70
2018-03-18T18:23:42.020Z,29.60
2018-03-18T18:26:10.256Z,29.70
2018-03-18T18:28:39.294Z,29.90
2018-03-18T18:31:07.563Z,29.80
2018-03-18T18:33:35.810Z,29.90
2018-03-18T18:36:04.091Z,29.80
2018-03-18T18:38:32.341Z,29.50
2018-03-18T18:41:02.102Z,29.40
2018-03-18T18:43:30.348Z,29.40
2018-03-18T18:45:59.399Z,29.40
2018-03-18T18:48:27.640Z,29.50
2018-03-18T18:50:55.917Z,29.10
2018-03-18T18:53:24.176Z,29.10
2018-03-18T18:55:52.441Z,29.20
2018-03-18T18:58:21.157Z,29.20
2018-03-18T19:00:49.517Z,29.00
2018-03-18T19:03:17.798Z,29.30
2018-03-18T19:05:46.073Z,29.10
2018-03-18T19:08:15.131Z,29.10
2018-03-18T19:10:43.388Z,29.00
2018-03-18T19:13:12.645Z,28.90
2018-03-18T19:15:40.908Z,28.70
2018-03-18T19:18:09.162Z,28.80
2018-03-18T19:20:37.450Z,28.90
2018-03-18T19:23:07.404Z,29.10
2018-03-18T19:25:37.625Z,28.90
2018-03-18T19:28:06.458Z,28.90
2018-03-18T19:30:34.727Z,28.90
2018-03-18T19:33:02.956Z,28.60
2018-03-18T19:35:31.487Z,28.70
2018-03-18T19:37:59.748Z,28.50
2018-03-18T19:40:28.004Z,28.80
2018-03-18T19:42:57.977Z,28.60
2018-03-18T19:45:26.455Z,28.50
2018-03-18T19:47:54.681Z,28.10
2018-03-18T19:50:23.155Z,28.60
2018-03-18T19:52:51.385Z,28.40
2018-03-18T19:55:20.597Z,28.40
2018-03-18T19:57:50.358Z,28.30
2018-03-18T20:00:18.651Z,28.30
2018-03-18T20:02:47.258Z,28.10
2018-03-18T20:05:16.332Z,28.50
2018-03-18T20:07:45.411Z,28.10
2018-03-18T20:10:13.742Z,28.00
2018-03-18T20:12:42.861Z,28.00
2018-03-18T20:15:11.204Z,28.00
2018-03-18T20:17:39.422Z,28.20
2018-03-18T20:20:08.677Z,28.20
2018-03-18T20:22:39.916Z,27.80
2018-03-18T20:25:10.290Z,27.70
2018-03-18T20:27:39.387Z,27.80
2018-03-18T20:30:07.661Z,27.90
2018-03-18T20:32:35.905Z,27.90
2018-03-18T20:35:04.956Z,27.50
2018-03-18T20:37:34.015Z,27.40
2018-03-18T20:40:02.399Z,27.50
2018-03-18T20:42:30.669Z,27.60
2018-03-18T20:44:58.985Z,27.70
2018-03-18T20:47:28.036Z,27.70
2018-03-18T20:49:56.335Z,27.80
2018-03-18T20:52:24.609Z,27.70
2018-03-18T20:54:53.158Z,27.90
2018-03-18T20:57:21.400Z,28.20
2018-03-18T20:59:49.618Z,27.80
2018-03-18T21:02:17.890Z,27.60
2018-03-18T21:04:46.133Z,27.80
2018-03-18T21:07:15.750Z,27.80
2018-03-18T21:09:44.027Z,27.80
2018-03-18T21:12:13.012Z,27.70
2018-03-18T21:14:41.264Z,27.70
2018-03-18T21:17:09.510Z,27.60
2018-03-18T21:19:37.792Z,27.70
2018-03-18T21:22:06.075Z,27.80
2018-03-18T21:24:34.344Z,27.50
2018-03-18T21:27:02.619Z,27.60
2018-03-18T21:29:30.872Z,27.70
2018-03-18T21:31:59.615Z,27.80
2018-03-18T21:34:37.856Z,27.70
2018-03-18T21:37:06.117Z,27.80
2018-03-18T21:39:34.427Z,27.70
2018-03-18T21:42:02.695Z,27.90
2018-03-18T21:44:30.962Z,27.50
2018-03-18T21:46:59.222Z,27.70
2018-03-18T21:49:27.534Z,27.70
2018-03-18T21:51:55.782Z,27.80
2018-03-18T21:54:25.030Z,27.80
2018-03-18T21:56:53.294Z,27.80
2018-03-18T21:59:21.566Z,27.90
2018-03-18T22:01:50.690Z,28.60
2018-03-18T22:04:18.960Z,27.90
2018-03-18T22:06:47.999Z,28.00
2018-03-18T22:09:16.423Z,28.00
2018-03-18T22:11:44.666Z,28.10
2018-03-18T22:14:12.949Z,27.80
2018-03-18T22:16:41.192Z,27.90
2018-03-18T22:19:09.462Z,28.00
2018-03-18T22:21:37.709Z,28.00
2018-03-18T22:24:06.014Z,28.10
2018-03-18T22:26:34.324Z,28.30
2018-03-18T22:29:02.598Z,28.00
2018-03-18T22:31:32.525Z,28.00
2018-03-18T22:34:00.795Z,28.20
2018-03-18T22:36:29.084Z,28.20
2018-03-18T22:38:58.133Z,28.20
2018-03-18T22:41:26.385Z,28.30
2018-03-18T22:43:57.309Z,28.10
2018-03-18T22:46:25.574Z,28.40
2018-03-18T22:48:53.858Z,28.40
2018-03-18T22:51:22.112Z,28.30
2018-03-18T22:53:51.309Z,28.20
2018-03-18T22:56:19.551Z,28.20
2018-03-18T22:58:47.800Z,28.30
2018-03-18T23:01:16.081Z,28.40
2018-03-18T23:03:44.339Z,28.30
2018-03-18T23:06:12.638Z,28.20
2018-03-18T23:08:42.398Z,28.30
2018-03-18T23:11:11.594Z,28.40
2018-03-18T23:13:40.618Z,28.40
2018-03-18T23:16:09.081Z,28.20
2018-03-18T23:18:38.185Z,28.40
2018-03-18T23:21:06.439Z,28.30
2018-03-18T23:23:34.673Z,28.30
2018-03-18T23:26:02.967Z,28.30
2018-03-18T23:28:31.210Z,28.60
2018-03-18T23:30:59.462Z,28.50
2018-03-18T23:33:27.697Z,28.40
2018-03-18T23:35:56.072Z,28.50
2018-03-18T23:38:25.202Z,28.30
2018-03-18T23:40:53.513Z,28.30
2018-03-18T23:43:21.749Z,28.20
2018-03-18T23:45:50.004Z,28.50
2018-03-18T23:48:19.095Z,28.30
2018-03-18T23:50:48.246Z,29.00
2018-03-18T23:53:17.468Z,28.50
2018-03-18T23:55:45.779Z,28.20
2018-03-18T23:58:14.032Z,28.10
